Time;durP1;ratioP1;P1;durP2;ratioP2;P2;SDS_P1;SDS_P2;PMS_P1;PMS_P2;Temp;Humidity;BMP_temperature;BMP_pressure;BME280_temperature;BME280_humidity;BME280_pressure;Samples;Min_cycle;Max_cycle;Signal;HPM_P1;HPM_P2
2021/04/08 00:00:20;;;;;;;16.53;2.63;;;1.40;94.80;;;;;;5061722;28;20028;-76
2021/04/08 00:02:46;;;;;;;13.00;2.23;;;1.40;94.80;;;;;;5078334;28;20039;-76
2021/04/08 00:05:13;;;;;;;5.57;1.50;;;1.40;94.80;;;;;;5061449;28;20236;-76
2021/04/08 00:07:39;;;;;;;18.27;1.90;;;1.40;94.80;;;;;;5096166;28;20020;-76
2021/04/08 00:10:06;;;;;;;12.20;1.57;;;1.40;94.80;;;;;;5077888;28;20473;-76
2021/04/08 00:12:31;;;;;;;12.43;1.30;;;1.40;94.80;;;;;;5078049;28;20380;-76
2021/04/08 00:14:57;;;;;;;10.00;1.50;;;1.40;94.80;;;;;;5096336;28;20036;-77
2021/04/08 00:17:23;;;;;;;12.63;1.30;;;1.40;94.80;;;;;;5095837;28;20044;-76
2021/04/08 00:19:49;;;;;;;12.20;1.20;;;1.30;94.80;;;;;;5096187;28;20024;-76
2021/04/08 00:22:14;;;;;;;10.33;1.03;;;1.30;94.80;;;;;;5077918;28;20050;-76
2021/04/08 00:24:40;;;;;;;11.90;1.73;;;1.30;94.80;;;;;;5077849;28;20103;-76
2021/04/08 00:27:06;;;;;;;9.10;1.37;;;1.30;94.80;;;;;;5060984;28;20020;-76
2021/04/08 00:29:32;;;;;;;10.47;1.50;;;1.30;94.80;;;;;;5076658;28;20028;-76
2021/04/08 00:31:57;;;;;;;11.53;1.23;;;1.30;94.80;;;;;;5095999;28;20341;-76
2021/04/08 00:34:23;;;;;;;12.10;1.57;;;1.30;94.80;;;;;;5060957;28;20028;-77
2021/04/08 00:36:48;;;;;;;10.33;1.20;;;1.30;94.70;;;;;;5095700;28;20032;-76
2021/04/08 00:39:14;;;;;;;7.83;1.50;;;1.30;94.70;;;;;;5061144;28;20367;-76
2021/04/08 00:41:40;;;;;;;10.77;1.27;;;1.30;94.70;;;;;;5077724;28;20035;-76
2021/04/08 00:44:06;;;;;;;5.60;1.10;;;1.20;94.60;;;;;;5077370;28;20020;-76
2021/04/08 00:46:32;;;;;;;5.67;1.80;;;1.20;94.60;;;;;;5095593;28;20160;-76
2021/04/08 00:48:57;;;;;;;5.57;0.90;;;1.20;94.60;;;;;;5095667;28;20024;-76
2021/04/08 00:51:23;;;;;;;10.27;1.33;;;1.20;94.80;;;;;;5095481;28;20028;-76
2021/04/08 00:53:50;;;;;;;4.13;1.00;;;1.20;94.50;;;;;;5077279;28;20024;-76
2021/04/08 00:56:16;;;;;;;11.90;2.27;;;1.20;94.50;;;;;;5077107;28;20024;-77
2021/04/08 00:58:43;;;;;;;11.30;1.93;;;1.20;94.50;;;;;;5095106;28;20077;-77
2021/04/08 01:01:09;;;;;;;9.50;1.33;;;1.20;94.50;;;;;;5077236;28;20020;-76
2021/04/08 01:03:36;;;;;;;12.33;1.57;;;1.20;94.50;;;;;;5095435;28;20032;-77
2021/04/08 01:06:02;;;;;;;6.23;1.07;;;1.20;94.50;;;;;;5076975;28;20073;-77
2021/04/08 01:08:27;;;;;;;12.90;1.83;;;1.20;94.50;;;;;;5077104;28;20028;-77
2021/04/08 01:10:53;;;;;;;7.77;1.57;;;1.30;94.60;;;;;;5095050;28;20489;-77
2021/04/08 01:13:21;;;;;;;7.20;1.43;;;1.30;94.60;;;;;;5094943;28;20028;-76
2021/04/08 01:15:47;;;;;;;7.87;1.33;;;1.30;94.60;;;;;;5076707;28;20032;-77
2021/04/08 01:18:55;;;;;;;15.17;1.70;;;1.30;94.50;;;;;;5094875;28;20604;-77
2021/04/08 01:21:40;;;;;;;10.13;1.73;;;1.40;94.50;;;;;;5039031;28;20040;-77
2021/04/08 01:24:36;;;;;;;6.17;1.23;;;1.30;94.50;;;;;;5094698;28;20464;-77
2021/04/08 01:27:14;;;;;;;7.10;1.40;;;1.40;94.50;;;;;;5094755;28;20107;-76
2021/04/08 01:30:10;;;;;;;9.60;1.50;;;1.40;94.40;;;;;;5076485;28;20030;-77
2021/04/08 01:32:41;;;;;;;11.83;1.43;;;1.30;94.30;;;;;;5095092;28;20066;-76
2021/04/08 01:35:09;;;;;;;4.97;1.93;;;1.30;94.30;;;;;;5076395;28;20539;-76
2021/04/08 01:38:01;;;;;;;7.63;1.60;;;1.30;94.30;;;;;;5094870;28;20024;-76
2021/04/08 01:40:28;;;;;;;10.07;2.17;;;1.30;94.30;;;;;;5076040;28;20032;-77
2021/04/08 01:42:55;;;;;;;10.93;1.73;;;1.30;94.30;;;;;;5059504;28;20028;-77
2021/04/08 01:45:22;;;;;;;26.07;2.27;;;1.30;94.30;;;;;;5094489;28;20356;-77
2021/04/08 01:47:49;;;;;;;11.83;1.63;;;1.30;94.50;;;;;;5076334;28;20077;-76
2021/04/08 01:50:16;;;;;;;7.77;1.43;;;1.30;94.50;;;;;;5076393;28;20081;-76
2021/04/08 01:52:47;;;;;;;9.87;1.70;;;1.30;94.50;;;;;;5094103;28;20111;-76
2021/04/08 01:55:13;;;;;;;5.80;1.13;;;1.30;94.60;;;;;;5094297;28;20049;-77
2021/04/08 01:57:41;;;;;;;13.07;1.90;;;1.40;94.90;;;;;;5059333;28;20073;-76
2021/04/08 02:00:11;;;;;;;8.77;1.60;;;1.40;94.70;;;;;;5075635;28;20399;-76
2021/04/08 02:02:39;;;;;;;7.83;1.53;;;1.40;94.70;;;;;;5076342;28;20028;-72
2021/04/08 02:05:14;;;;;;;12.73;2.30;;;1.50;94.80;;;;;;5075869;28;20050;-72
2021/04/08 02:07:41;;;;;;;8.97;1.43;;;1.50;94.80;;;;;;5094116;28;20102;-72
2021/04/08 02:10:08;;;;;;;6.13;1.33;;;1.60;94.80;;;;;;5059383;28;20036;-72
2021/04/08 02:12:36;;;;;;;6.07;1.30;;;1.60;94.70;;;;;;5093777;28;20032;-72
2021/04/08 02:15:07;;;;;;;6.93;1.43;;;1.70;94.70;;;;;;5059345;28;20031;-73
2021/04/08 02:17:35;;;;;;;7.83;1.37;;;1.70;94.70;;;;;;5093678;28;20048;-72
2021/04/08 02:20:10;;;;;;;5.43;1.23;;;1.80;94.70;;;;;;5094135;28;20483;-73
2021/04/08 02:22:39;;;;;;;8.20;1.00;;;1.80;94.60;;;;;;5075465;28;20464;-72
2021/04/08 02:25:08;;;;;;;8.53;1.97;;;1.80;94.60;;;;;;5075607;28;20118;-73
2021/04/08 02:27:37;;;;;;;10.30;1.20;;;1.90;94.60;;;;;;5075553;28;20455;-73
2021/04/08 02:30:05;;;;;;;6.90;1.70;;;1.90;94.60;;;;;;5093650;28;20046;-77
2021/04/08 02:32:31;;;;;;;5.27;0.90;;;2.00;94.50;;;;;;5075303;28;20031;-77
2021/04/08 02:34:57;;;;;;;9.73;2.30;;;2.10;94.50;;;;;;5094151;28;20036;-77
2021/04/08 02:37:23;;;;;;;5.83;0.80;;;2.00;94.40;;;;;;5094116;28;20375;-76
2021/04/08 02:39:48;;;;;;;8.23;1.10;;;2.10;94.40;;;;;;5093735;28;20040;-77
2021/04/08 02:42:14;;;;;;;8.17;1.40;;;2.10;94.40;;;;;;5075789;28;20035;-76
2021/04/08 02:44:40;;;;;;;8.07;1.37;;;2.20;94.30;;;;;;5075283;28;20028;-77
2021/04/08 02:47:05;;;;;;;5.37;1.33;;;2.20;94.20;;;;;;5075237;28;20528;-76
2021/04/08 02:49:32;;;;;;;7.90;1.63;;;2.20;94.10;;;;;;5075310;28;20035;-76
2021/04/08 02:52:04;;;;;;;12.77;1.93;;;2.20;94.00;;;;;;5092903;28;20047;-72
2021/04/08 02:54:37;;;;;;;7.37;1.10;;;2.30;94.00;;;;;;5075278;28;20062;-73
2021/04/08 02:57:03;;;;;;;7.37;1.10;;;2.30;94.20;;;;;;5093159;28;20527;-74
2021/04/08 02:59:35;;;;;;;3.10;0.80;;;2.30;93.80;;;;;;5075341;28;20032;-72
2021/04/08 03:02:06;;;;;;;7.90;1.10;;;2.30;93.80;;;;;;5075387;28;20020;-72
2021/04/08 03:04:37;;;;;;;8.77;1.00;;;2.30;93.80;;;;;;5093492;28;20371;-73
2021/04/08 03:07:04;;;;;;;4.00;1.10;;;2.30;93.80;;;;;;5093437;28;20093;-73
2021/04/08 03:09:38;;;;;;;5.73;0.80;;;2.30;93.80;;;;;;5093255;28;20483;-73
2021/04/08 03:12:05;;;;;;;;;;;2.30;93.80;;;;;;5093373;28;20012;-74
2021/04/08 03:14:34;;;;;;;9.97;1.67;;;2.30;93.80;;;;;;5075531;28;19911;-77
2021/04/08 03:17:02;;;;;;;8.50;1.03;;;2.30;94.00;;;;;;5074953;28;20040;-77
2021/04/08 03:19:29;;;;;;;4.63;0.80;;;2.30;93.70;;;;;;5093242;28;20017;-77
2021/04/08 03:21:57;;;;;;;6.13;0.90;;;2.30;93.70;;;;;;5074747;28;20039;-77
2021/04/08 03:24:24;;;;;;;7.03;1.00;;;2.30;93.70;;;;;;5075042;28;20515;-77
2021/04/08 03:26:51;;;;;;;6.97;1.03;;;2.20;93.70;;;;;;5074691;28;20422;-77
2021/04/08 03:29:17;;;;;;;3.97;1.00;;;2.30;93.70;;;;;;5092800;28;20024;-77
2021/04/08 03:31:46;;;;;;;5.87;0.97;;;2.30;93.90;;;;;;5093239;28;20081;-76
2021/04/08 03:34:13;;;;;;;6.13;0.80;;;2.30;93.60;;;;;;5074702;28;20070;-77
2021/04/08 03:36:39;;;;;;;4.57;0.73;;;2.20;93.60;;;;;;5074635;28;20035;-77
2021/04/08 03:39:06;;;;;;;3.87;0.90;;;2.30;93.70;;;;;;5074458;28;20024;-76
2021/04/08 03:41:39;;;;;;;5.00;0.80;;;2.30;93.60;;;;;;5057911;28;20039;-76
2021/04/08 03:44:11;;;;;;;4.40;0.90;;;2.30;93.60;;;;;;5074501;28;20356;-76
2021/04/08 03:46:38;;;;;;;4.13;0.90;;;2.30;93.60;;;;;;5092676;28;20016;-77
2021/04/08 03:49:07;;;;;;;7.77;0.90;;;2.30;93.60;;;;;;5057833;28;20460;-77
2021/04/08 03:51:35;;;;;;;5.27;0.80;;;2.30;93.60;;;;;;5074403;28;20070;-77
2021/04/08 03:54:04;;;;;;;5.60;0.87;;;2.30;93.60;;;;;;5092502;28;20024;-77
2021/04/08 03:56:31;;;;;;;4.23;1.30;;;2.40;93.70;;;;;;5092370;28;20031;-77
2021/04/08 03:58:58;;;;;;;7.57;1.00;;;2.30;93.60;;;;;;5074911;28;20082;-77
2021/04/08 04:01:24;;;;;;;8.03;0.93;;;2.40;93.70;;;;;;5067309;28;20119;-77
2021/04/08 04:03:51;;;;;;;7.73;1.03;;;2.40;93.70;;;;;;5054908;28;20487;-77
2021/04/08 04:06:17;;;;;;;2.07;0.60;;;2.40;93.60;;;;;;5058159;28;20020;-78
2021/04/08 04:08:43;;;;;;;6.97;0.80;;;2.50;93.70;;;;;;5076096;28;20027;-78
2021/04/08 04:11:12;;;;;;;6.27;1.13;;;2.50;93.60;;;;;;5041694;28;20127;-77
2021/04/08 04:13:39;;;;;;;7.17;0.70;;;2.50;93.70;;;;;;5075957;28;20028;-78
2021/04/08 04:16:07;;;;;;;9.17;2.00;;;2.50;93.60;;;;;;5075792;28;20485;-77
2021/04/08 04:18:33;;;;;;;6.83;1.07;;;2.50;93.60;;;;;;5057901;28;20040;-77
2021/04/08 04:21:00;;;;;;;4.67;0.90;;;2.50;93.60;;;;;;5076000;28;20511;-77
2021/04/08 04:23:25;;;;;;;5.97;1.07;;;2.50;93.50;;;;;;5058045;28;20047;-77
2021/04/08 04:25:52;;;;;;;9.90;1.30;;;2.50;93.80;;;;;;5057479;28;20492;-78
2021/04/08 04:28:17;;;;;;;6.27;1.00;;;2.50;93.50;;;;;;5075344;28;20074;-77
2021/04/08 04:30:43;;;;;;;5.30;0.93;;;2.50;93.50;;;;;;5075844;28;20028;-77
2021/04/08 04:33:08;;;;;;;5.30;0.90;;;2.60;93.50;;;;;;5075929;28;20040;-77
2021/04/08 04:35:34;;;;;;;7.27;1.10;;;2.60;93.50;;;;;;5075569;28;20422;-78
2021/04/08 04:38:00;;;;;;;9.33;1.00;;;2.60;93.50;;;;;;5058069;28;20121;-77
2021/04/08 04:40:26;;;;;;;7.23;0.90;;;2.60;93.50;;;;;;5088696;28;20031;-78
2021/04/08 04:42:52;;;;;;;6.97;1.00;;;2.70;93.50;;;;;;5060977;28;20382;-77
2021/04/08 04:45:17;;;;;;;4.87;1.23;;;2.70;93.40;;;;;;5073909;28;20032;-77
2021/04/08 04:47:43;;;;;;;6.97;1.40;;;2.70;93.40;;;;;;5077366;28;20046;-77
2021/04/08 04:50:11;;;;;;;5.60;0.97;;;2.70;93.40;;;;;;5081161;28;20028;-78
2021/04/08 04:52:37;;;;;;;10.33;1.53;;;2.70;93.40;;;;;;5095482;28;20032;-78
2021/04/08 04:55:04;;;;;;;4.90;1.17;;;2.70;93.40;;;;;;5077333;28;20042;-78
2021/04/08 04:57:30;;;;;;;5.73;1.10;;;2.70;93.30;;;;;;5095641;28;20032;-77
2021/04/08 04:59:56;;;;;;;4.97;1.17;;;2.70;93.30;;;;;;5074251;28;20102;-77
2021/04/08 05:02:21;;;;;;;8.07;0.90;;;2.80;93.30;;;;;;5040485;28;20036;-77
2021/04/08 05:04:47;;;;;;;9.23;1.27;;;2.80;93.30;;;;;;5074910;28;20108;-77
2021/04/08 05:07:13;;;;;;;8.37;1.37;;;2.80;93.30;;;;;;5057293;28;20047;-78
2021/04/08 05:09:38;;;;;;;7.90;1.07;;;2.80;93.20;;;;;;5057201;28;20128;-77
2021/04/08 05:12:04;;;;;;;3.57;1.00;;;2.80;93.50;;;;;;5040639;28;20044;-78
2021/04/08 05:14:30;;;;;;;7.00;1.43;;;2.80;93.20;;;;;;5056562;28;20115;-77
2021/04/08 05:16:55;;;;;;;5.07;0.90;;;2.80;93.20;;;;;;5056542;28;20412;-78
2021/04/08 05:19:21;;;;;;;5.83;1.20;;;2.80;93.20;;;;;;5075921;28;20380;-78
2021/04/08 05:21:50;;;;;;;8.27;1.63;;;2.80;93.20;;;;;;5076904;28;20525;-78
2021/04/08 05:24:16;;;;;;;4.40;1.00;;;2.90;93.20;;;;;;5076792;28;20032;-77
2021/04/08 05:26:41;;;;;;;7.60;1.20;;;2.90;93.20;;;;;;5094750;28;20486;-77
2021/04/08 05:29:07;;;;;;;5.90;2.00;;;2.90;93.20;;;;;;5076626;28;20085;-78
2021/04/08 05:31:33;;;;;;;7.77;2.13;;;2.90;93.50;;;;;;5094745;28;20036;-77
2021/04/08 05:33:58;;;;;;;5.43;1.97;;;2.90;93.20;;;;;;5094124;28;20032;-78
2021/04/08 05:36:24;;;;;;;10.57;3.10;;;2.90;93.20;;;;;;5068492;28;20028;-77
2021/04/08 05:38:50;;;;;;;8.33;2.70;;;2.90;93.20;;;;;;5064260;28;20043;-78
2021/04/08 05:41:15;;;;;;;5.40;3.07;;;3.00;93.20;;;;;;5094367;28;20028;-77
2021/04/08 05:43:42;;;;;;;9.40;3.20;;;3.00;93.20;;;;;;5059612;28;20032;-77
2021/04/08 05:46:09;;;;;;;7.83;3.23;;;3.10;93.20;;;;;;5094193;28;20115;-78
2021/04/08 05:48:36;;;;;;;16.93;4.20;;;3.10;93.10;;;;;;5094430;28;20031;-78
2021/04/08 05:51:02;;;;;;;19.33;4.53;;;3.10;93.00;;;;;;5094521;28;20111;-78
2021/04/08 05:53:27;;;;;;;9.93;4.33;;;3.10;93.00;;;;;;5075950;28;20563;-78
2021/04/08 05:55:53;;;;;;;11.83;4.13;;;3.10;93.00;;;;;;5076077;28;20060;-77
2021/04/08 05:58:18;;;;;;;13.47;4.17;;;3.10;93.00;;;;;;5076028;28;20035;-77
2021/04/08 06:00:44;;;;;;;16.67;4.30;;;3.20;93.00;;;;;;5075975;28;20036;-77
2021/04/08 06:03:10;;;;;;;9.37;4.13;;;3.20;92.90;;;;;;5059315;28;20024;-77
2021/04/08 06:05:35;;;;;;;11.67;3.37;;;3.20;92.90;;;;;;5094053;28;20040;-78
2021/04/08 06:08:01;;;;;;;17.73;5.10;;;3.20;92.80;;;;;;5076033;28;20031;-77
2021/04/08 06:10:27;;;;;;;10.90;4.13;;;3.20;92.80;;;;;;5075858;28;20027;-77
2021/04/08 06:12:53;;;;;;;13.30;3.97;;;3.30;92.70;;;;;;5093853;28;20166;-77
2021/04/08 06:15:21;;;;;;;13.37;4.50;;;3.30;92.60;;;;;;5059178;28;20083;-77
2021/04/08 06:17:46;;;;;;;14.27;4.73;;;3.30;92.50;;;;;;5093535;28;20134;-77
2021/04/08 06:20:12;;;;;;;16.90;5.10;;;3.20;92.50;;;;;;5075905;28;20123;-76
2021/04/08 06:22:38;;;;;;;12.03;3.70;;;3.30;92.50;;;;;;5093881;28;20429;-76
2021/04/08 06:25:05;;;;;;;12.00;4.47;;;3.30;92.50;;;;;;5093547;28;20028;-77
2021/04/08 06:27:34;;;;;;;8.23;3.60;;;3.30;92.40;;;;;;5092857;28;20031;-77
2021/04/08 06:30:00;;;;;;;11.60;3.53;;;3.30;92.30;;;;;;5075452;28;20471;-77
2021/04/08 06:32:26;;;;;;;10.60;3.77;;;3.20;92.20;;;;;;5093430;28;20031;-77
2021/04/08 06:34:51;;;;;;;10.27;3.97;;;3.20;92.20;;;;;;5075507;28;20036;-77
2021/04/08 06:37:17;;;;;;;13.07;3.83;;;3.20;92.10;;;;;;5076241;28;20426;-77
2021/04/08 06:39:43;;;;;;;11.83;3.43;;;3.20;92.00;;;;;;5075275;28;20039;-77
2021/04/08 06:42:09;;;;;;;9.10;3.83;;;3.20;92.00;;;;;;5093564;28;20035;-77
2021/04/08 06:44:37;;;;;;;9.53;3.70;;;3.20;92.10;;;;;;5093728;28;20035;-77
2021/04/08 06:47:05;;;;;;;11.77;3.77;;;3.10;92.00;;;;;;5093412;28;20027;-77
2021/04/08 06:49:49;;;;;;;5.40;2.93;;;3.10;92.00;;;;;;5075299;28;20043;-77
2021/04/08 06:52:17;;;;;;;13.13;4.05;;;3.10;91.90;;;;;;5095446;28;20023;-77
2021/04/08 06:54:44;;;;;;;9.93;3.50;;;3.10;91.90;;;;;;5094907;28;20066;-74
2021/04/08 06:57:11;;;;;;;10.43;3.17;;;3.10;91.90;;;;;;5092694;28;20020;-73
2021/04/08 06:59:37;;;;;;;9.13;3.40;;;3.10;92.00;;;;;;5057208;28;20024;-74
2021/04/08 07:02:02;;;;;;;8.30;3.63;;;3.20;92.10;;;;;;5075012;28;20475;-73
2021/04/08 07:04:29;;;;;;;10.87;3.23;;;3.20;92.00;;;;;;5058554;28;20123;-74
2021/04/08 07:06:54;;;;;;;10.30;3.80;;;3.20;91.80;;;;;;5075262;28;20025;-74
2021/04/08 07:09:20;;;;;;;11.40;3.93;;;3.30;91.80;;;;;;5058653;28;20029;-74
2021/04/08 07:11:46;;;;;;;9.57;3.40;;;3.40;91.60;;;;;;5058229;28;20475;-74
2021/04/08 07:14:12;;;;;;;8.50;3.20;;;3.60;91.70;;;;;;5074963;28;20027;-74
2021/04/08 07:16:38;;;;;;;7.30;3.33;;;3.50;91.70;;;;;;5058926;28;20055;-73
2021/04/08 07:19:06;;;;;;;10.93;3.10;;;3.50;91.70;;;;;;5092954;28;20054;-73
2021/04/08 07:21:36;;;;;;;10.57;3.40;;;3.60;91.60;;;;;;5093140;28;20120;-74
2021/04/08 07:24:17;;;;;;;7.67;2.80;;;3.70;91.70;;;;;;5093040;28;20016;-73
2021/04/08 07:26:56;;;;;;;11.87;4.33;;;3.80;91.60;;;;;;5075044;28;20625;-73
2021/04/08 07:29:24;;;;;;;7.97;3.37;;;3.90;91.30;;;;;;5074962;28;20468;-73
2021/04/08 07:31:50;;;;;;;11.77;3.50;;;4.00;90.90;;;;;;5075055;28;20111;-74
2021/04/08 07:34:36;;;;;;;9.53;3.10;;;4.10;91.00;;;;;;5075195;28;20111;-74
2021/04/08 07:37:03;;;;;;;7.30;3.07;;;4.30;90.70;;;;;;5076048;28;20107;-74
2021/04/08 07:39:46;;;;;;;5.53;2.53;;;4.40;90.10;;;;;;5078087;28;20031;-74
2021/04/08 07:42:23;;;;;;;8.13;2.43;;;4.60;89.90;;;;;;5078718;28;20103;-75
2021/04/08 07:44:55;;;;;;;5.67;2.00;;;4.70;89.20;;;;;;5096962;28;20529;-74
2021/04/08 07:47:26;;;;;;;7.43;2.57;;;4.90;87.50;;;;;;5078565;28;20069;-74
2021/04/08 07:50:14;;;;;;;6.33;2.73;;;5.00;86.90;;;;;;5096809;28;20032;-74
2021/04/08 07:52:45;;;;;;;9.10;2.70;;;5.10;85.60;;;;;;5097040;28;20406;-74
2021/04/08 07:55:27;;;;;;;6.23;2.70;;;5.20;84.20;;;;;;5078701;28;20020;-74
2021/04/08 07:57:53;;;;;;;6.87;2.87;;;5.30;84.40;;;;;;5096743;28;20034;-74
2021/04/08 08:00:26;;;;;;;5.77;2.60;;;5.30;83.90;;;;;;5096513;28;20107;-74
2021/04/08 08:02:52;;;;;;;7.50;3.00;;;5.40;82.90;;;;;;5096709;28;20494;-74
2021/04/08 08:05:24;;;;;;;8.10;2.90;;;5.40;83.20;;;;;;5058815;28;20477;-74
2021/04/08 08:07:50;;;;;;;7.67;2.83;;;5.40;81.70;;;;;;5076042;28;20136;-73
2021/04/08 08:10:25;;;;;;;7.50;2.40;;;5.40;82.20;;;;;;5078508;28;20476;-73
2021/04/08 08:12:52;;;;;;;9.13;2.40;;;5.50;80.40;;;;;;5096628;28;20413;-73
2021/04/08 08:15:19;;;;;;;7.07;2.50;;;5.30;80.10;;;;;;5096154;28;20093;-74
2021/04/08 08:17:46;;;;;;;6.67;2.80;;;5.40;80.10;;;;;;5075450;28;20040;-73
2021/04/08 08:20:13;;;;;;;6.97;2.10;;;5.40;79.30;;;;;;5070433;28;20035;-73
2021/04/08 08:22:40;;;;;;;9.13;2.93;;;5.40;78.00;;;;;;5078073;28;20099;-73
2021/04/08 08:25:07;;;;;;;7.13;2.43;;;5.50;78.50;;;;;;5096142;28;20107;-74
2021/04/08 08:27:59;;;;;;;13.20;2.30;;;5.50;77.20;;;;;;5096058;28;20061;-74
2021/04/08 08:30:32;;;;;;;6.93;2.33;;;5.60;78.90;;;;;;5074254;28;20051;-73
2021/04/08 08:33:17;;;;;;;8.00;2.10;;;5.60;78.10;;;;;;5078430;28;20032;-75
2021/04/08 08:35:44;;;;;;;8.63;2.40;;;5.70;78.40;;;;;;5096224;28;20054;-74
2021/04/08 08:38:13;;;;;;;6.60;2.40;;;5.70;76.40;;;;;;5077906;28;20105;-73
2021/04/08 08:40:40;;;;;;;7.73;1.67;;;5.80;76.90;;;;;;5095387;28;20414;-73
2021/04/08 08:43:07;;;;;;;4.33;1.83;;;5.90;77.10;;;;;;5095417;28;20099;-74
2021/04/08 08:45:34;;;;;;;8.33;2.33;;;6.00;76.80;;;;;;5095168;28;20142;-73
2021/04/08 08:48:08;;;;;;;9.00;2.30;;;6.10;73.00;;;;;;5061252;28;20024;-73
2021/04/08 08:50:35;;;;;;;7.05;1.85;;;6.10;72.60;;;;;;5076425;28;20040;-73
2021/04/08 08:53:02;;;;;;;10.23;2.23;;;6.30;72.70;;;;;;5077297;28;20122;-74
2021/04/08 08:55:28;;;;;;;5.33;2.07;;;6.50;72.20;;;;;;5095438;28;20062;-73
2021/04/08 08:57:56;;;;;;;5.80;1.90;;;6.50;70.40;;;;;;5077407;28;20028;-74
2021/04/08 09:00:26;;;;;;;5.53;1.80;;;6.60;70.10;;;;;;5077401;28;20552;-76
2021/04/08 09:02:55;;;;;;;6.53;2.13;;;6.60;68.10;;;;;;5077105;28;20131;-73
2021/04/08 09:05:22;;;;;;;6.83;2.33;;;6.70;66.10;;;;;;5077298;28;20032;-74
2021/04/08 09:07:51;;;;;;;5.33;2.20;;;6.60;65.40;;;;;;5060351;28;20495;-74
2021/04/08 09:10:26;;;;;;;6.30;2.00;;;6.70;63.60;;;;;;5076687;28;20053;-77
2021/04/08 09:12:52;;;;;;;9.50;2.73;;;6.80;64.70;;;;;;5076786;28;20020;-80
2021/04/08 09:15:19;;;;;;;6.23;2.37;;;6.90;65.50;;;;;;5060141;28;20028;-78
2021/04/08 09:17:56;;;;;;;6.20;1.97;;;7.00;64.00;;;;;;5076876;28;20040;-78
2021/04/08 09:20:22;;;;;;;5.80;2.00;;;7.10;63.70;;;;;;5094944;28;20028;-77
2021/04/08 09:23:18;;;;;;;8.90;1.90;;;7.20;62.90;;;;;;5076664;28;20349;-78
2021/04/08 09:25:51;;;;;;;6.87;1.80;;;7.40;63.30;;;;;;5095412;28;20017;-77
2021/04/08 09:28:18;;;;;;;5.45;2.03;;;7.60;63.90;;;;;;5077017;28;20027;-77
2021/04/08 09:33:20;;;;;;;7.50;2.30;;;7.80;60.80;;;;;;5095274;28;20108;-77
2021/04/08 09:35:46;;;;;;;6.93;2.60;;;7.80;59.00;;;;;;5094830;28;20487;-78
2021/04/08 09:38:12;;;;;;;10.37;2.63;;;7.80;58.00;;;;;;5077233;28;20032;-78
2021/04/08 09:40:43;;;;;;;6.07;2.27;;;7.90;59.40;;;;;;5076594;28;20085;-77
2021/04/08 09:43:12;;;;;;;6.87;2.63;;;7.90;58.90;;;;;;5076238;28;20136;-78
2021/04/08 09:45:57;;;;;;;5.93;2.53;;;8.10;59.80;;;;;;5076391;28;20012;-81
2021/04/08 09:48:25;;;;;;;6.78;2.67;;;8.30;59.10;;;;;;5076525;28;20458;-80
2021/04/08 09:50:55;;;;;;;8.53;2.90;;;8.50;58.50;;;;;;5094168;28;20042;-78
2021/04/08 09:53:41;;;;;;;7.27;2.50;;;8.60;56.60;;;;;;5094525;28;20024;-78
2021/04/08 09:56:07;;;;;;;7.43;2.70;;;8.80;56.80;;;;;;5074667;28;20036;-77
2021/04/08 09:58:36;;;;;;;5.57;2.47;;;9.00;54.80;;;;;;5076295;28;20123;-77
2021/04/08 10:01:07;;;;;;;6.83;3.10;;;9.20;55.00;;;;;;5091293;28;20114;-77
2021/04/08 10:03:35;;;;;;;8.80;2.57;;;9.10;53.50;;;;;;5076097;28;20557;-78
2021/04/08 10:06:20;;;;;;;4.67;2.20;;;9.20;54.00;;;;;;5075854;28;20051;-77
2021/04/08 10:08:47;;;;;;;8.13;2.47;;;9.20;53.00;;;;;;5072411;28;20062;-79
2021/04/08 10:11:14;;;;;;;8.60;2.80;;;9.30;52.20;;;;;;5076154;28;20036;-77
2021/04/08 10:13:41;;;;;;;6.23;2.43;;;9.30;51.50;;;;;;5094139;28;20028;-76
2021/04/08 10:16:12;;;;;;;6.10;2.60;;;9.40;51.40;;;;;;5075692;28;20048;-77
2021/04/08 10:18:39;;;;;;;6.23;3.10;;;9.40;51.90;;;;;;5094119;28;20056;-79
2021/04/08 10:21:12;;;;;;;7.77;2.87;;;9.40;49.30;;;;;;5039057;28;20028;-77
2021/04/08 10:23:40;;;;;;;8.53;3.00;;;9.40;50.40;;;;;;5055736;28;20066;-78
2021/04/08 10:26:36;;;;;;;5.20;2.53;;;9.40;48.40;;;;;;5073850;28;20021;-77
2021/04/08 10:29:03;;;;;;;9.13;3.27;;;9.40;47.90;;;;;;5068591;28;20042;-77
2021/04/08 10:31:31;;;;;;;7.73;3.57;;;9.30;47.60;;;;;;5055584;28;20540;-81
2021/04/08 10:34:06;;;;;;;9.63;3.37;;;9.30;47.90;;;;;;5056720;28;20032;-77
2021/04/08 10:36:37;;;;;;;9.33;4.00;;;9.30;46.60;;;;;;5073861;28;20033;-74
2021/04/08 10:39:14;;;;;;;7.97;3.60;;;9.40;46.00;;;;;;5055819;28;20510;-74
2021/04/08 10:42:01;;;;;;;7.17;3.53;;;9.20;46.20;;;;;;5073811;28;20411;-74
2021/04/08 10:44:32;;;;;;;9.77;4.70;;;9.10;46.50;;;;;;5058148;28;20471;-75
2021/04/08 10:47:19;;;;;;;8.37;4.00;;;9.10;47.50;;;;;;5075224;28;20028;-77
2021/04/08 10:49:54;;;;;;;7.97;3.93;;;9.00;47.30;;;;;;5093470;28;20016;-75
2021/04/08 10:52:23;;;;;;;9.93;4.73;;;8.90;48.70;;;;;;5075295;28;20356;-76
2021/04/08 10:54:55;;;;;;;7.77;4.03;;;9.00;48.30;;;;;;5075461;28;20028;-74
2021/04/08 10:57:23;;;;;;;10.53;3.93;;;9.00;48.50;;;;;;5075645;28;20448;-75
2021/04/08 10:59:49;;;;;;;7.77;3.20;;;9.10;48.50;;;;;;5075537;28;20032;-74
2021/04/08 11:02:27;;;;;;;7.23;3.40;;;9.20;48.50;;;;;;5075125;28;20012;-77
2021/04/08 11:04:58;;;;;;;8.50;4.00;;;9.20;49.10;;;;;;5093385;28;20028;-76
2021/04/08 11:07:26;;;;;;;9.63;3.87;;;9.50;49.30;;;;;;5093902;28;20058;-80
2021/04/08 11:09:52;;;;;;;6.67;3.03;;;9.40;49.20;;;;;;5093316;28;20024;-80
2021/04/08 11:12:24;;;;;;;7.57;3.37;;;9.50;49.80;;;;;;5075506;28;20051;-81
2021/04/08 11:14:58;;;;;;;9.27;3.40;;;9.50;48.80;;;;;;5078737;28;20020;-77
2021/04/08 11:17:25;;;;;;;8.07;3.72;;;9.50;48.80;;;;;;5079215;28;20036;-78
2021/04/08 11:19:53;;;;;;;11.63;4.13;;;9.60;48.60;;;;;;5097186;28;20032;-78
2021/04/08 11:22:29;;;;;;;7.57;3.63;;;9.60;46.70;;;;;;5079178;28;20030;-79
2021/04/08 11:24:55;;;;;;;7.13;3.67;;;9.50;47.60;;;;;;5078882;28;20024;-83
2021/04/08 11:27:30;;;;;;;7.97;3.90;;;9.50;47.50;;;;;;5079314;28;20414;-77
2021/04/08 11:29:57;;;;;;;10.83;4.43;;;9.60;48.50;;;;;;5062811;28;20085;-78
2021/04/08 11:32:23;;;;;;;9.83;4.10;;;9.80;48.20;;;;;;5097109;28;20060;-77
2021/04/08 11:34:54;;;;;;;12.17;4.37;;;9.90;48.10;;;;;;5078776;28;20028;-79
2021/04/08 11:37:36;;;;;;;7.33;3.50;;;10.00;47.00;;;;;;5078857;28;20540;-78
2021/04/08 11:40:06;;;;;;;9.40;3.97;;;10.10;48.20;;;;;;5096864;28;20081;-74
2021/04/08 11:42:34;;;;;;;9.63;5.10;;;10.10;47.50;;;;;;5097613;28;20395;-79
2021/04/08 11:45:30;;;;;;;8.63;3.93;;;10.20;46.90;;;;;;5096774;28;20502;-78
2021/04/08 11:48:06;;;;;;;9.37;4.03;;;10.30;47.10;;;;;;5078504;28;20178;-78
2021/04/08 11:50:38;;;;;;;9.07;4.77;;;10.20;46.80;;;;;;5096644;28;20020;-82
2021/04/08 11:53:31;;;;;;;9.43;5.20;;;10.10;46.00;;;;;;5096734;28;20047;-81
2021/04/08 11:55:56;;;;;;;11.87;4.83;;;10.00;46.80;;;;;;5077962;28;20108;-77
2021/04/08 11:58:27;;;;;;;10.63;5.70;;;9.90;46.50;;;;;;5096474;28;20085;-78
2021/04/08 12:01:05;;;;;;;10.83;5.47;;;9.80;46.70;;;;;;5078176;28;20026;-79
2021/04/08 12:03:45;;;;;;;6.90;4.83;;;9.70;46.80;;;;;;5078461;28;20020;-81
2021/04/08 12:06:12;;;;;;;8.33;4.80;;;9.60;46.70;;;;;;5096394;28;20059;-77
2021/04/08 12:08:45;;;;;;;9.93;5.27;;;9.50;47.00;;;;;;5062554;28;20105;-77
2021/04/08 12:11:15;;;;;;;8.47;5.03;;;9.40;47.60;;;;;;5077731;28;20028;-78
2021/04/08 12:13:48;;;;;;;11.27;5.03;;;9.50;47.90;;;;;;5096065;28;20023;-78
2021/04/08 12:16:24;;;;;;;8.13;4.60;;;9.50;48.00;;;;;;5096264;28;20040;-78
2021/04/08 12:18:50;;;;;;;8.17;4.43;;;9.60;48.30;;;;;;5061315;28;20032;-77
2021/04/08 12:21:17;;;;;;;9.90;4.50;;;9.60;48.30;;;;;;5096567;28;20475;-79
2021/04/08 12:23:43;;;;;;;11.80;5.60;;;9.80;48.90;;;;;;5095947;28;20024;-78
2021/04/08 12:26:09;;;;;;;10.30;4.53;;;9.80;47.90;;;;;;5076619;28;20028;-78
2021/04/08 12:28:35;;;;;;;9.70;5.67;;;9.80;48.00;;;;;;5077996;28;20214;-79
2021/04/08 12:31:02;;;;;;;10.03;5.13;;;9.90;48.20;;;;;;5096438;28;20032;-77
2021/04/08 12:33:38;;;;;;;11.67;6.10;;;9.90;48.20;;;;;;5077935;28;20033;-77
2021/04/08 12:36:06;;;;;;;10.10;5.60;;;9.90;47.20;;;;;;5095499;28;20059;-78
2021/04/08 12:38:33;;;;;;;11.57;5.97;;;10.00;48.10;;;;;;5078018;28;20039;-78
2021/04/08 12:40:59;;;;;;;10.17;5.53;;;10.10;48.60;;;;;;5069063;28;20052;-78
2021/04/08 12:43:26;;;;;;;11.23;6.83;;;10.00;47.80;;;;;;5075513;28;20056;-80
2021/04/08 12:45:51;;;;;;;11.37;5.47;;;9.90;47.10;;;;;;5051324;28;20094;-79
2021/04/08 12:48:17;;;;;;;12.53;6.40;;;9.80;47.40;;;;;;5077986;28;20111;-81
2021/04/08 12:50:45;;;;;;;16.00;6.07;;;9.90;48.20;;;;;;5061216;28;20360;-77
2021/04/08 12:53:11;;;;;;;11.90;6.60;;;9.80;47.20;;;;;;5077211;28;20115;-76
2021/04/08 12:55:38;;;;;;;9.23;6.00;;;9.80;46.80;;;;;;5060454;28;20036;-75
2021/04/08 12:58:04;;;;;;;11.43;6.50;;;9.70;47.50;;;;;;5095708;28;20036;-74
2021/04/08 13:00:30;;;;;;;13.20;6.37;;;9.80;47.50;;;;;;5060713;28;20073;-75
2021/04/08 13:02:56;;;;;;;11.97;6.67;;;9.80;48.90;;;;;;5095628;28;20115;-74
2021/04/08 13:05:23;;;;;;;14.30;6.40;;;9.80;48.50;;;;;;5077224;28;20485;-74